sensor_id;sensor_type;location;lat;lon;timestamp;pressure;altitude;pressure_sealevel;temperature;humidity
6096;BME280;25081;42.698;23.298;2023-01-19T00:00:46;94074.38;;;14.67;43.29
6096;BME280;25081;42.698;23.298;2023-01-19T00:02:56;94054.81;;;14.59;43.57
6096;BME280;25081;42.698;23.298;2023-01-19T00:05:08;94043.30;;;14.51;44.04
6096;BME280;25081;42.698;23.298;2023-01-19T00:07:18;94059.67;;;14.49;44.21
6096;BME280;25081;42.698;23.298;2023-01-19T00:09:29;94088.08;;;14.53;44.28
6096;BME280;25081;42.698;23.298;2023-01-19T00:11:39;94062.33;;;14.59;44.15
6096;BME280;25081;42.698;23.298;2023-01-19T00:13:50;94069.31;;;14.58;44.05
6096;BME280;25081;42.698;23.298;2023-01-19T00:16:00;94080.28;;;14.62;43.97
6096;BME280;25081;42.698;23.298;2023-01-19T00:18:10;94080.83;;;14.56;44.32
6096;BME280;25081;42.698;23.298;2023-01-19T00:20:21;94085.69;;;14.49;44.59
6096;BME280;25081;42.698;23.298;2023-01-19T00:22:31;94067.99;;;14.48;44.89
6096;BME280;25081;42.698;23.298;2023-01-19T00:24:41;94094.27;;;14.51;44.88
6096;BME280;25081;42.698;23.298;2023-01-19T00:26:52;94074.40;;;14.42;45.18
6096;BME280;25081;42.698;23.298;2023-01-19T00:29:02;94102.84;;;14.50;44.78
6096;BME280;25081;42.698;23.298;2023-01-19T00:31:13;94096.13;;;14.45;44.96
6096;BME280;25081;42.698;23.298;2023-01-19T00:33:23;94093.72;;;14.51;44.49
6096;BME280;25081;42.698;23.298;2023-01-19T00:35:34;94088.09;;;14.50;44.71
6096;BME280;25081;42.698;23.298;2023-01-19T00:37:44;94088.34;;;14.54;44.60
6096;BME280;25081;42.698;23.298;2023-01-19T00:39:54;94100.98;;;14.48;44.79
6096;BME280;25081;42.698;23.298;2023-01-19T00:42:05;94087.81;;;14.52;44.55
6096;BME280;25081;42.698;23.298;2023-01-19T00:44:33;94088.61;;;14.55;44.16
6096;BME280;25081;42.698;23.298;2023-01-19T00:46:43;94072.02;;;14.48;44.42
6096;BME280;25081;42.698;23.298;2023-01-19T00:48:54;94072.25;;;14.54;43.98
6096;BME280;25081;42.698;23.298;2023-01-19T00:51:05;94086.45;;;14.57;43.80
6096;BME280;25081;42.698;23.298;2023-01-19T00:53:15;94053.75;;;14.57;43.65
6096;BME280;25081;42.698;23.298;2023-01-19T00:55:26;94098.01;;;14.52;43.91
6096;BME280;25081;42.698;23.298;2023-01-19T00:57:37;94080.30;;;14.54;43.84
6096;BME280;25081;42.698;23.298;2023-01-19T00:59:47;94070.92;;;14.51;43.93
6096;BME280;25081;42.698;23.298;2023-01-19T01:01:58;94080.31;;;14.51;43.80
6096;BME280;25081;42.698;23.298;2023-01-19T01:04:08;94073.58;;;14.62;43.43
6096;BME280;25081;42.698;23.298;2023-01-19T01:06:18;94076.81;;;14.53;43.73
6096;BME280;25081;42.698;23.298;2023-01-19T01:08:29;94081.41;;;14.48;43.92
6096;BME280;25081;42.698;23.298;2023-01-19T01:10:39;94061.27;;;14.45;43.80
6096;BME280;25081;42.698;23.298;2023-01-19T01:12:50;94089.16;;;14.47;43.70
6096;BME280;25081;42.698;23.298;2023-01-19T01:15:00;94085.41;;;14.58;43.31
6096;BME280;25081;42.698;23.298;2023-01-19T01:17:10;94054.83;;;14.51;43.55
6096;BME280;25081;42.698;23.298;2023-01-19T01:19:21;94061.53;;;14.46;43.79
6096;BME280;25081;42.698;23.298;2023-01-19T01:21:31;94080.33;;;14.49;43.73
6096;BME280;25081;42.698;23.298;2023-01-19T01:23:42;94081.66;;;14.49;43.64
6096;BME280;25081;42.698;23.298;2023-01-19T01:25:52;94019.18;;;14.48;43.47
6096;BME280;25081;42.698;23.298;2023-01-19T01:28:03;94064.98;;;14.67;42.40
6096;BME280;25081;42.698;23.298;2023-01-19T01:30:14;94066.84;;;14.67;42.65
6096;BME280;25081;42.698;23.298;2023-01-19T01:32:24;94056.41;;;14.63;42.92
6096;BME280;25081;42.698;23.298;2023-01-19T01:34:35;94068.77;;;14.58;42.93
6096;BME280;25081;42.698;23.298;2023-01-19T01:36:45;94071.44;;;14.56;42.96
6096;BME280;25081;42.698;23.298;2023-01-19T01:38:55;94079.77;;;14.47;43.30
6096;BME280;25081;42.698;23.298;2023-01-19T01:41:06;94079.77;;;14.39;43.32
6096;BME280;25081;42.698;23.298;2023-01-19T01:43:17;94107.64;;;14.43;43.07
6096;BME280;25081;42.698;23.298;2023-01-19T01:45:30;94050.78;;;14.62;42.82
6096;BME280;25081;42.698;23.298;2023-01-19T01:47:40;94073.33;;;14.58;42.79
6096;BME280;25081;42.698;23.298;2023-01-19T01:49:51;94088.06;;;14.60;42.75
6096;BME280;25081;42.698;23.298;2023-01-19T01:52:01;94064.19;;;14.56;42.76
6096;BME280;25081;42.698;23.298;2023-01-19T01:54:14;94066.38;;;14.49;42.96
6096;BME280;25081;42.698;23.298;2023-01-19T01:56:25;94084.09;;;14.48;43.01
6096;BME280;25081;42.698;23.298;2023-01-19T01:58:34;94086.48;;;14.49;43.02
6096;BME280;25081;42.698;23.298;2023-01-19T02:00:44;94022.92;;;14.50;42.87
6096;BME280;25081;42.698;23.298;2023-01-19T02:03:13;94091.83;;;14.54;42.67
6096;BME280;25081;42.698;23.298;2023-01-19T02:05:24;94070.67;;;14.48;42.86
6096;BME280;25081;42.698;23.298;2023-01-19T02:07:35;94029.08;;;14.58;42.50
6096;BME280;25081;42.698;23.298;2023-01-19T02:10:03;94092.61;;;14.65;42.45
6096;BME280;25081;42.698;23.298;2023-01-19T02:12:32;94046.75;;;14.56;42.60
6096;BME280;25081;42.698;23.298;2023-01-19T02:15:00;94058.84;;;14.54;42.06
6096;BME280;25081;42.698;23.298;2023-01-19T02:17:10;94049.17;;;14.55;42.00
6096;BME280;25081;42.698;23.298;2023-01-19T02:19:21;94041.36;;;14.67;41.59
6096;BME280;25081;42.698;23.298;2023-01-19T02:21:32;94060.12;;;14.74;41.38
6096;BME280;25081;42.698;23.298;2023-01-19T02:23:43;94060.64;;;14.81;41.14
6096;BME280;25081;42.698;23.298;2023-01-19T02:25:53;93988.50;;;14.72;41.22
6096;BME280;25081;42.698;23.298;2023-01-19T02:28:03;94046.72;;;14.67;41.37
6096;BME280;25081;42.698;23.298;2023-01-19T02:30:14;94027.95;;;14.69;41.25
6096;BME280;25081;42.698;23.298;2023-01-19T02:32:25;94040.27;;;14.73;41.22
6096;BME280;25081;42.698;23.298;2023-01-19T02:34:36;94033.03;;;14.73;41.12
6096;BME280;25081;42.698;23.298;2023-01-19T02:36:47;94041.65;;;14.68;41.31
6096;BME280;25081;42.698;23.298;2023-01-19T02:38:57;94044.05;;;14.64;41.36
6096;BME280;25081;42.698;23.298;2023-01-19T02:41:07;94009.98;;;14.65;41.11
6096;BME280;25081;42.698;23.298;2023-01-19T02:43:18;94043.50;;;14.72;41.22
6096;BME280;25081;42.698;23.298;2023-01-19T02:45:31;94067.95;;;14.60;41.54
6096;BME280;25081;42.698;23.298;2023-01-19T02:47:43;94037.64;;;14.55;41.67
6096;BME280;25081;42.698;23.298;2023-01-19T02:49:57;94062.60;;;14.58;41.09
6096;BME280;25081;42.698;23.298;2023-01-19T02:52:08;94016.14;;;14.70;40.78
6096;BME280;25081;42.698;23.298;2023-01-19T02:54:28;94057.19;;;14.71;41.07
6096;BME280;25081;42.698;23.298;2023-01-19T02:56:49;94026.86;;;14.73;40.83
6096;BME280;25081;42.698;23.298;2023-01-19T02:59:02;94026.88;;;14.70;41.07
6096;BME280;25081;42.698;23.298;2023-01-19T03:01:13;94022.59;;;14.64;41.22
6096;BME280;25081;42.698;23.298;2023-01-19T03:03:27;94041.66;;;14.63;41.04
6096;BME280;25081;42.698;23.298;2023-01-19T03:05:50;94059.35;;;14.64;41.10
6096;BME280;25081;42.698;23.298;2023-01-19T03:07:55;94087.52;;;14.69;40.59
6096;BME280;25081;42.698;23.298;2023-01-19T03:10:06;94074.91;;;14.69;40.47
6096;BME280;25081;42.698;23.298;2023-01-19T03:12:18;94018.87;;;14.60;41.07
6096;BME280;25081;42.698;23.298;2023-01-19T03:14:27;94027.19;;;14.58;40.91
6096;BME280;25081;42.698;23.298;2023-01-19T03:16:39;94055.89;;;14.58;40.66
6096;BME280;25081;42.698;23.298;2023-01-19T03:18:51;94023.43;;;14.59;40.99
6096;BME280;25081;42.698;23.298;2023-01-19T03:21:03;93935.97;;;13.66;41.22
6096;BME280;25081;42.698;23.298;2023-01-19T03:23:12;94028.80;;;14.54;40.68
6096;BME280;25081;42.698;23.298;2023-01-19T03:25:23;94038.48;;;14.50;41.10
6096;BME280;25081;42.698;23.298;2023-01-19T03:27:35;94039.02;;;14.45;41.16
6096;BME280;25081;42.698;23.298;2023-01-19T03:29:44;94051.88;;;14.40;41.42
6096;BME280;25081;42.698;23.298;2023-01-19T03:31:54;94059.12;;;14.40;41.52
6096;BME280;25081;42.698;23.298;2023-01-19T03:34:05;94073.06;;;14.47;41.12
6096;BME280;25081;42.698;23.298;2023-01-19T03:36:17;94056.97;;;14.47;40.93
6096;BME280;25081;42.698;23.298;2023-01-19T03:38:26;94054.81;;;14.44;40.86
6096;BME280;25081;42.698;23.298;2023-01-19T03:40:36;94027.23;;;14.38;41.18
6096;BME280;25081;42.698;23.298;2023-01-19T03:42:47;94042.25;;;14.31;41.54
6096;BME280;25081;42.698;23.298;2023-01-19T03:44:57;94065.31;;;14.30;41.73
6096;BME280;25081;42.698;23.298;2023-01-19T03:47:09;94028.56;;;14.33;41.58
6096;BME280;25081;42.698;23.298;2023-01-19T03:49:18;94035.55;;;14.29;41.81
6096;BME280;25081;42.698;23.298;2023-01-19T03:51:29;94048.69;;;14.30;41.54
6096;BME280;25081;42.698;23.298;2023-01-19T03:53:39;94057.80;;;14.32;41.60
6096;BME280;25081;42.698;23.298;2023-01-19T03:55:50;94022.95;;;14.24;41.69
6096;BME280;25081;42.698;23.298;2023-01-19T03:58:00;94054.04;;;14.25;41.52
6096;BME280;25081;42.698;23.298;2023-01-19T04:00:13;94008.78;;;14.11;41.38
6096;BME280;25081;42.698;23.298;2023-01-19T04:02:23;94032.86;;;14.31;41.38
6096;BME280;25081;42.698;23.298;2023-01-19T04:04:34;94038.48;;;14.27;41.51
6096;BME280;25081;42.698;23.298;2023-01-19T04:06:44;94035.80;;;14.32;40.84
6096;BME280;25081;42.698;23.298;2023-01-19T04:08:55;94058.56;;;14.38;40.50
6096;BME280;25081;42.698;23.298;2023-01-19T04:11:05;94050.27;;;14.37;40.27
6096;BME280;25081;42.698;23.298;2023-01-19T04:13:16;94079.52;;;14.38;40.34
6096;BME280;25081;42.698;23.298;2023-01-19T04:15:27;94057.25;;;14.45;39.64
6096;BME280;25081;42.698;23.298;2023-01-19T04:17:37;94034.44;;;14.53;39.59
6096;BME280;25081;42.698;23.298;2023-01-19T04:19:48;94048.08;;;14.64;39.12
6096;BME280;25081;42.698;23.298;2023-01-19T04:21:58;94022.89;;;14.55;39.36
6096;BME280;25081;42.698;23.298;2023-01-19T04:24:10;94036.05;;;14.44;39.70
6096;BME280;25081;42.698;23.298;2023-01-19T04:26:20;94033.93;;;14.38;39.60
6096;BME280;25081;42.698;23.298;2023-01-19T04:28:31;94025.86;;;14.43;39.31
6096;BME280;25081;42.698;23.298;2023-01-19T04:30:41;94030.16;;;14.42;40.10
6096;BME280;25081;42.698;23.298;2023-01-19T04:32:51;94021.27;;;14.56;38.95
6096;BME280;25081;42.698;23.298;2023-01-19T04:35:02;94029.08;;;14.58;38.71
6096;BME280;25081;42.698;23.298;2023-01-19T04:37:13;94032.52;;;14.64;38.29
6096;BME280;25081;42.698;23.298;2023-01-19T04:39:23;94039.21;;;14.71;38.41
6096;BME280;25081;42.698;23.298;2023-01-19T04:41:33;94053.97;;;14.66;38.65
6096;BME280;25081;42.698;23.298;2023-01-19T04:43:44;94032.54;;;14.61;38.89
6096;BME280;25081;42.698;23.298;2023-01-19T04:45:54;94026.90;;;14.63;38.78
6096;BME280;25081;42.698;23.298;2023-01-19T04:48:05;94041.41;;;14.59;38.92
6096;BME280;25081;42.698;23.298;2023-01-19T04:50:16;94045.70;;;14.57;39.08
6096;BME280;25081;42.698;23.298;2023-01-19T04:52:31;94028.27;;;14.57;38.96
6096;BME280;25081;42.698;23.298;2023-01-19T04:54:42;94036.83;;;14.67;38.84
6096;BME280;25081;42.698;23.298;2023-01-19T04:56:52;94039.50;;;14.67;38.79
6096;BME280;25081;42.698;23.298;2023-01-19T04:59:03;94037.34;;;14.69;38.61
6096;BME280;25081;42.698;23.298;2023-01-19T05:01:13;94055.85;;;14.66;38.56
6096;BME280;25081;42.698;23.298;2023-01-19T05:03:24;94062.00;;;14.74;38.26
6096;BME280;25081;42.698;23.298;2023-01-19T05:05:34;94069.52;;;14.67;38.45
6096;BME280;25081;42.698;23.298;2023-01-19T05:07:44;94072.48;;;14.65;38.49
6096;BME280;25081;42.698;23.298;2023-01-19T05:09:55;94086.20;;;14.58;38.86
6096;BME280;25081;42.698;23.298;2023-01-19T05:12:06;94096.39;;;14.59;38.72
6096;BME280;25081;42.698;23.298;2023-01-19T05:14:17;94101.52;;;14.48;39.05
6096;BME280;25081;42.698;23.298;2023-01-19T05:16:27;94105.80;;;14.49;39.17
6096;BME280;25081;42.698;23.298;2023-01-19T05:18:37;94100.70;;;14.50;39.06
6096;BME280;25081;42.698;23.298;2023-01-19T05:20:48;94115.98;;;14.52;39.07
6096;BME280;25081;42.698;23.298;2023-01-19T05:22:58;94098.80;;;14.60;38.76
6096;BME280;25081;42.698;23.298;2023-01-19T05:25:10;94103.88;;;14.65;38.56
6096;BME280;25081;42.698;23.298;2023-01-19T05:27:20;94093.16;;;14.57;38.64
6096;BME280;25081;42.698;23.298;2023-01-19T05:29:30;94094.47;;;14.72;38.14
6096;BME280;25081;42.698;23.298;2023-01-19T05:31:41;94081.30;;;14.76;38.24
6096;BME280;25081;42.698;23.298;2023-01-19T05:33:51;94067.40;;;14.69;38.42
6096;BME280;25081;42.698;23.298;2023-01-19T05:36:02;94099.06;;;14.62;38.57
6096;BME280;25081;42.698;23.298;2023-01-19T05:38:12;94094.19;;;14.74;38.09
6096;BME280;25081;42.698;23.298;2023-01-19T05:40:22;94103.34;;;14.70;38.20
6096;BME280;25081;42.698;23.298;2023-01-19T05:42:33;94104.38;;;14.74;38.06
6096;BME280;25081;42.698;23.298;2023-01-19T05:44:43;94108.96;;;14.66;38.19
6096;BME280;25081;42.698;23.298;2023-01-19T05:46:54;94097.68;;;14.79;37.87
6096;BME280;25081;42.698;23.298;2023-01-19T05:49:04;94100.38;;;14.77;38.08
6096;BME280;25081;42.698;23.298;2023-01-19T05:51:14;94109.20;;;14.82;37.89
6096;BME280;25081;42.698;23.298;2023-01-19T05:53:25;94103.31;;;14.75;38.09
6096;BME280;25081;42.698;23.298;2023-01-19T05:55:35;94125.03;;;14.86;37.73
6096;BME280;25081;42.698;23.298;2023-01-19T05:57:46;94108.12;;;14.83;37.67
6096;BME280;25081;42.698;23.298;2023-01-19T05:59:56;94105.73;;;14.74;37.83
6096;BME280;25081;42.698;23.298;2023-01-19T06:02:06;94096.34;;;14.74;37.84
6096;BME280;25081;42.698;23.298;2023-01-19T06:04:17;94104.66;;;14.78;37.79
6096;BME280;25081;42.698;23.298;2023-01-19T06:06:28;94083.12;;;14.98;37.09
6096;BME280;25081;42.698;23.298;2023-01-19T06:08:38;94092.74;;;15.04;36.88
6096;BME280;25081;42.698;23.298;2023-01-19T06:10:49;94082.58;;;14.99;36.94
6096;BME280;25081;42.698;23.298;2023-01-19T06:12:59;94090.88;;;15.02;36.97
6096;BME280;25081;42.698;23.298;2023-01-19T06:15:11;94079.32;;;15.04;37.11
6096;BME280;25081;42.698;23.298;2023-01-19T06:17:21;94097.05;;;15.08;36.99
6096;BME280;25081;42.698;23.298;2023-01-19T06:19:32;94087.39;;;15.07;37.08
6096;BME280;25081;42.698;23.298;2023-01-19T06:21:42;94082.60;;;14.96;37.43
6096;BME280;25081;42.698;23.298;2023-01-19T06:23:53;94088.17;;;15.05;37.52
6096;BME280;25081;42.698;23.298;2023-01-19T06:26:04;94077.99;;;15.07;37.29
6096;BME280;25081;42.698;23.298;2023-01-19T06:28:14;94090.86;;;15.10;37.13
6096;BME280;25081;42.698;23.298;2023-01-19T06:30:25;94070.70;;;15.12;37.32
6096;BME280;25081;42.698;23.298;2023-01-19T06:32:35;94076.88;;;15.13;37.08
6096;BME280;25081;42.698;23.298;2023-01-19T06:34:46;94087.61;;;15.13;37.31
6096;BME280;25081;42.698;23.298;2023-01-19T06:36:56;94107.20;;;15.13;37.16
6096;BME280;25081;42.698;23.298;2023-01-19T06:39:07;94075.81;;;15.11;37.25
6096;BME280;25081;42.698;23.298;2023-01-19T06:41:18;94084.39;;;15.16;37.08
6096;BME280;25081;42.698;23.298;2023-01-19T06:43:28;94082.47;;;15.22;36.79
6096;BME280;25081;42.698;23.298;2023-01-19T06:45:38;94094.31;;;15.18;36.94
6096;BME280;25081;42.698;23.298;2023-01-19T06:47:49;94101.03;;;15.18;36.86
6096;BME280;25081;42.698;23.298;2023-01-19T06:49:59;94124.08;;;15.27;36.59
6096;BME280;25081;42.698;23.298;2023-01-19T06:52:10;94113.30;;;15.32;36.59
6096;BME280;25081;42.698;23.298;2023-01-19T06:54:20;94126.16;;;15.40;36.34
6096;BME280;25081;42.698;23.298;2023-01-19T06:56:31;94110.84;;;15.40;36.26
6096;BME280;25081;42.698;23.298;2023-01-19T06:58:41;94130.98;;;15.45;36.02
6096;BME280;25081;42.698;23.298;2023-01-19T07:00:51;94114.00;;;15.53;35.97
6096;BME280;25081;42.698;23.298;2023-01-19T07:03:02;94122.61;;;15.55;35.98
6096;BME280;25081;42.698;23.298;2023-01-19T07:05:12;94119.38;;;15.55;36.00
6096;BME280;25081;42.698;23.298;2023-01-19T07:07:23;94138.39;;;15.69;35.54
6096;BME280;25081;42.698;23.298;2023-01-19T07:09:33;94118.22;;;15.74;35.26
6096;BME280;25081;42.698;23.298;2023-01-19T07:11:43;94133.17;;;15.88;35.00
6096;BME280;25081;42.698;23.298;2023-01-19T07:13:54;94130.94;;;16.02;34.77
6096;BME280;25081;42.698;23.298;2023-01-19T07:16:06;94117.33;;;16.23;34.38
6096;BME280;25081;42.698;23.298;2023-01-19T07:18:16;94103.17;;;16.73;33.69
6096;BME280;25081;42.698;23.298;2023-01-19T07:20:27;94100.20;;;17.22;32.73
6096;BME280;25081;42.698;23.298;2023-01-19T07:22:37;94100.20;;;17.22;32.73
6096;BME280;25081;42.698;23.298;2023-01-19T07:24:48;94104.73;;;17.69;31.66
6096;BME280;25081;42.698;23.298;2023-01-19T07:26:58;94103.39;;;17.45;31.71
6096;BME280;25081;42.698;23.298;2023-01-19T07:29:09;94111.37;;;17.77;31.40
6096;BME280;25081;42.698;23.298;2023-01-19T07:31:19;94121.91;;;17.73;31.14
6096;BME280;25081;42.698;23.298;2023-01-19T07:33:30;94127.62;;;18.58;30.07
6096;BME280;25081;42.698;23.298;2023-01-19T07:35:44;94112.22;;;18.43;29.87
6096;BME280;25081;42.698;23.298;2023-01-19T07:37:50;94107.13;;;19.04;29.14
6096;BME280;25081;42.698;23.298;2023-01-19T07:40:01;94130.49;;;18.48;29.36
6096;BME280;25081;42.698;23.298;2023-01-19T07:42:11;94110.42;;;18.54;29.83
6096;BME280;25081;42.698;23.298;2023-01-19T07:44:22;94107.58;;;18.54;29.83
6096;BME280;25081;42.698;23.298;2023-01-19T07:46:32;94084.17;;;18.57;29.64
6096;BME280;25081;42.698;23.298;2023-01-19T07:48:42;94084.17;;;18.57;29.64
6096;BME280;25081;42.698;23.298;2023-01-19T07:50:54;94084.36;;;18.94;29.09
6096;BME280;25081;42.698;23.298;2023-01-19T07:53:06;94096.66;;;19.27;28.57
6096;BME280;25081;42.698;23.298;2023-01-19T07:55:16;94085.96;;;18.95;27.98
6096;BME280;25081;42.698;23.298;2023-01-19T07:57:26;94085.96;;;18.95;27.98
6096;BME280;25081;42.698;23.298;2023-01-19T07:59:37;94113.19;;;19.12;28.27
6096;BME280;25081;42.698;23.298;2023-01-19T08:01:47;94100.67;;;19.16;27.66
6096;BME280;25081;42.698;23.298;2023-01-19T08:03:57;94099.84;;;18.88;27.84
6096;BME280;25081;42.698;23.298;2023-01-19T08:06:11;94097.91;;;19.19;28.01
6096;BME280;25081;42.698;23.298;2023-01-19T08:08:21;94097.91;;;19.19;28.01
6096;BME280;25081;42.698;23.298;2023-01-19T08:10:32;94118.11;;;20.12;27.20
6096;BME280;25081;42.698;23.298;2023-01-19T08:12:42;94128.28;;;20.18;26.67
6096;BME280;25081;42.698;23.298;2023-01-19T08:14:52;94117.03;;;19.50;27.18
6096;BME280;25081;42.698;23.298;2023-01-19T08:17:03;94126.38;;;20.29;26.53
6096;BME280;25081;42.698;23.298;2023-01-19T08:19:13;94103.13;;;20.51;26.21
6096;BME280;25081;42.698;23.298;2023-01-19T08:21:23;94130.37;;;19.60;27.14
6096;BME280;25081;42.698;23.298;2023-01-19T08:23:34;94129.08;;;19.55;27.32
6096;BME280;25081;42.698;23.298;2023-01-19T08:25:44;94131.86;;;20.27;26.33
6096;BME280;25081;42.698;23.298;2023-01-19T08:27:55;94126.79;;;20.34;26.46
6096;BME280;25081;42.698;23.298;2023-01-19T08:30:08;94098.10;;;20.47;25.85
6096;BME280;25081;42.698;23.298;2023-01-19T08:32:18;94138.82;;;19.69;26.95
6096;BME280;25081;42.698;23.298;2023-01-19T08:34:28;94151.53;;;19.41;27.32
6096;BME280;25081;42.698;23.298;2023-01-19T08:36:39;94136.73;;;19.78;27.10
6096;BME280;25081;42.698;23.298;2023-01-19T08:38:49;94136.73;;;19.78;27.10
6096;BME280;25081;42.698;23.298;2023-01-19T08:41:00;94157.16;;;19.84;26.97
6096;BME280;25081;42.698;23.298;2023-01-19T08:43:11;94187.88;;;20.26;26.70
6096;BME280;25081;42.698;23.298;2023-01-19T08:45:20;94154.35;;;20.36;26.43
6096;BME280;25081;42.698;23.298;2023-01-19T08:47:31;94143.17;;;20.29;26.44
6096;BME280;25081;42.698;23.298;2023-01-19T08:49:41;94133.77;;;20.71;26.03
6096;BME280;25081;42.698;23.298;2023-01-19T08:51:52;94145.83;;;20.88;25.94
6096;BME280;25081;42.698;23.298;2023-01-19T08:54:02;94164.50;;;20.67;26.10
6096;BME280;25081;42.698;23.298;2023-01-19T08:56:13;94152.91;;;20.64;26.18
6096;BME280;25081;42.698;23.298;2023-01-19T08:58:23;94156.91;;;20.89;25.89
6096;BME280;25081;42.698;23.298;2023-01-19T09:00:34;94189.78;;;20.26;26.81
6096;BME280;25081;42.698;23.298;2023-01-19T09:02:44;94163.87;;;20.81;26.14
6096;BME280;25081;42.698;23.298;2023-01-19T09:04:54;94175.59;;;20.56;26.35
6096;BME280;25081;42.698;23.298;2023-01-19T09:07:05;94168.63;;;21.18;25.92
6096;BME280;25081;42.698;23.298;2023-01-19T09:09:15;94187.86;;;21.07;25.88
6096;BME280;25081;42.698;23.298;2023-01-19T09:11:25;94204.60;;;21.52;25.46
6096;BME280;25081;42.698;23.298;2023-01-19T09:13:36;94169.08;;;21.00;25.98
6096;BME280;25081;42.698;23.298;2023-01-19T09:15:47;94189.61;;;20.70;26.40
6096;BME280;25081;42.698;23.298;2023-01-19T09:17:57;94198.64;;;20.18;26.95
6096;BME280;25081;42.698;23.298;2023-01-19T09:20:09;94163.13;;;20.55;26.36
6096;BME280;25081;42.698;23.298;2023-01-19T09:22:20;94187.20;;;20.21;26.45
6096;BME280;25081;42.698;23.298;2023-01-19T09:24:30;94172.98;;;20.63;26.21
6096;BME280;25081;42.698;23.298;2023-01-19T09:26:41;94173.19;;;22.08;25.89
6096;BME280;25081;42.698;23.298;2023-01-19T09:28:52;94166.59;;;22.11;24.85
6096;BME280;25081;42.698;23.298;2023-01-19T09:31:06;94147.11;;;22.52;24.31
6096;BME280;25081;42.698;23.298;2023-01-19T09:33:16;94167.86;;;22.14;24.69
6096;BME280;25081;42.698;23.298;2023-01-19T09:35:26;94215.24;;;21.79;24.98
6096;BME280;25081;42.698;23.298;2023-01-19T09:37:37;94168.34;;;21.59;24.85
6096;BME280;25081;42.698;23.298;2023-01-19T09:39:47;94160.94;;;20.57;26.38
6096;BME280;25081;42.698;23.298;2023-01-19T09:41:59;94173.03;;;21.05;25.75
6096;BME280;25081;42.698;23.298;2023-01-19T09:44:11;94170.68;;;21.01;26.06
6096;BME280;25081;42.698;23.298;2023-01-19T09:46:21;94173.61;;;21.24;25.71
6096;BME280;25081;42.698;23.298;2023-01-19T09:48:38;94182.58;;;20.91;25.67
6096;BME280;25081;42.698;23.298;2023-01-19T09:50:48;94135.53;;;20.20;26.71
6096;BME280;25081;42.698;23.298;2023-01-19T09:52:59;94158.69;;;20.82;26.42
6096;BME280;25081;42.698;23.298;2023-01-19T09:55:14;94172.42;;;20.97;26.14
6096;BME280;25081;42.698;23.298;2023-01-19T09:57:22;94155.44;;;20.13;27.30
6096;BME280;25081;42.698;23.298;2023-01-19T09:59:32;94163.89;;;20.34;27.05
6096;BME280;25081;42.698;23.298;2023-01-19T10:01:48;94142.61;;;20.97;26.38
6096;BME280;25081;42.698;23.298;2023-01-19T10:04:06;94151.52;;;20.66;26.71
6096;BME280;25081;42.698;23.298;2023-01-19T10:06:15;94143.55;;;21.12;25.96
6096;BME280;25081;42.698;23.298;2023-01-19T10:08:27;94157.22;;;20.53;26.68
6096;BME280;25081;42.698;23.298;2023-01-19T10:10:38;94116.29;;;20.55;26.81
6096;BME280;25081;42.698;23.298;2023-01-19T10:12:53;94147.18;;;20.88;26.24
6096;BME280;25081;42.698;23.298;2023-01-19T10:15:04;94169.38;;;20.31;27.41
6096;BME280;25081;42.698;23.298;2023-01-19T10:17:19;94143.70;;;19.54;28.23
6096;BME280;25081;42.698;23.298;2023-01-19T10:19:29;94167.30;;;18.93;29.34
6096;BME280;25081;42.698;23.298;2023-01-19T10:21:39;94147.72;;;18.85;29.70
6096;BME280;25081;42.698;23.298;2023-01-19T10:23:49;94141.96;;;18.89;29.61
6096;BME280;25081;42.698;23.298;2023-01-19T10:26:02;94130.13;;;18.71;30.03
6096;BME280;25081;42.698;23.298;2023-01-19T10:28:10;94134.05;;;18.79;30.05
6096;BME280;25081;42.698;23.298;2023-01-19T10:30:22;94150.70;;;18.35;30.94
6096;BME280;25081;42.698;23.298;2023-01-19T10:32:33;94152.88;;;18.14;30.63
6096;BME280;25081;42.698;23.298;2023-01-19T10:34:43;94127.53;;;18.31;30.62
6096;BME280;25081;42.698;23.298;2023-01-19T10:36:55;94167.22;;;18.12;30.82
6096;BME280;25081;42.698;23.298;2023-01-19T10:39:05;94139.37;;;17.79;30.98
6096;BME280;25081;42.698;23.298;2023-01-19T10:41:20;94156.73;;;17.49;31.38
6096;BME280;25081;42.698;23.298;2023-01-19T10:43:40;94143.64;;;17.37;31.82
6096;BME280;25081;42.698;23.298;2023-01-19T10:45:50;94146.41;;;17.77;30.84
6096;BME280;25081;42.698;23.298;2023-01-19T10:48:05;94146.41;;;17.77;30.84
6096;BME280;25081;42.698;23.298;2023-01-19T10:50:23;94143.28;;;17.67;31.01
6096;BME280;25081;42.698;23.298;2023-01-19T10:52:34;94139.69;;;17.74;30.92
6096;BME280;25081;42.698;23.298;2023-01-19T10:54:44;94142.13;;;17.73;30.65
6096;BME280;25081;42.698;23.298;2023-01-19T10:56:55;94145.92;;;17.72;30.93
6096;BME280;25081;42.698;23.298;2023-01-19T10:59:05;94145.92;;;17.72;30.93
6096;BME280;25081;42.698;23.298;2023-01-19T11:01:17;94102.30;;;17.68;30.71
6096;BME280;25081;42.698;23.298;2023-01-19T11:03:28;94150.33;;;17.85;31.15
6096;BME280;25081;42.698;23.298;2023-01-19T11:05:37;94143.13;;;17.99;30.86
6096;BME280;25081;42.698;23.298;2023-01-19T11:07:48;94143.13;;;17.99;30.86
6096;BME280;25081;42.698;23.298;2023-01-19T11:10:20;94138.16;;;17.23;32.37
6096;BME280;25081;42.698;23.298;2023-01-19T11:12:30;94138.16;;;17.23;32.37
6096;BME280;25081;42.698;23.298;2023-01-19T11:14:40;94141.11;;;17.24;32.18
6096;BME280;25081;42.698;23.298;2023-01-19T11:16:51;94118.17;;;17.27;32.95
6096;BME280;25081;42.698;23.298;2023-01-19T11:19:01;94115.23;;;17.26;32.19
6096;BME280;25081;42.698;23.298;2023-01-19T11:21:13;94115.23;;;17.26;32.19
6096;BME280;25081;42.698;23.298;2023-01-19T11:23:25;94119.56;;;17.24;32.03
6096;BME280;25081;42.698;23.298;2023-01-19T11:25:35;94113.70;;;17.41;31.69
6096;BME280;25081;42.698;23.298;2023-01-19T11:27:47;94113.70;;;17.41;31.69
6096;BME280;25081;42.698;23.298;2023-01-19T11:30:04;94102.74;;;17.75;31.00
6096;BME280;25081;42.698;23.298;2023-01-19T11:32:19;94102.74;;;17.75;31.00
6096;BME280;25081;42.698;23.298;2023-01-19T11:34:32;94102.86;;;17.65;31.44